YXNN weather

Nanango Hospital Helipad
Nanango, Queensland, Australia

Public forecast

Using degrees Celsius for public forecast. Weather courtesy of forecast.io.

METAR (pilot weather report)

Closest report is Kingaroy Airport, 10.3 nm (19.1 km) WNW. Retrieved 2019/02/21 01:00 UTC (16 minutes ago):

YKRY 210100Z AUTO 11008KT 9999 // NCD 31/18 Q1010

TAF (pilot weather forecast)

Forecast is more than 12 hours old.

Closest forecast is RAAF Base Amberley, 69.6 nm (128.9 km) SSE. Retrieved 2019/02/20 00:00 UTC (1 day ago):

TAF YAMB 202302Z 2100/2118 15010KT 9999 SCT040 FM210200 14016KT CAVOK FM210900 16010KT 9999 SCT025